DLH47X EVRA-EDDH
Flight info
| Callsign | DLH47X |
|---|---|
| Flight time | N/A |
| Altitude | 38000 |
| Route | VALED DCT ADAXA DCT NINTA DCT BAGOS N850 BOGMU BOGMU3P |
| Aircraft | A20N/M-SDE2E3FGHIRWXY/LB1 |
Departure
| Time | N/A |
|---|---|
| Airport | Riga International Airport (EVRA) |
Arrival
| Time | 2026-04-24 19:47 |
|---|---|
| Airport | Hamburg Helmut Schmidt Airport (EDDH) |
| Time | Latitude | Longitude | Altitude | Speed | Heading |
|---|---|---|---|---|---|
| 2026-04-24 17:08 | 56.92209 | 23.97666 | 43 ft | 0 kts | 6° |
| 2026-04-24 18:54 | 55.81162 | 16.28776 | 37933 ft | 415 kts | 253° |
| 2026-04-24 18:55 | 55.78017 | 16.14480 | 37935 ft | 413 kts | 253° |
| 2026-04-24 18:56 | 55.75915 | 16.04982 | 37929 ft | 413 kts | 253° |
| 2026-04-24 18:56 | 55.73799 | 15.95454 | 37936 ft | 418 kts | 253° |
| 2026-04-24 18:57 | 55.71638 | 15.85767 | 37933 ft | 426 kts | 253° |
| 2026-04-24 18:57 | 55.69437 | 15.75957 | 37932 ft | 430 kts | 253° |
| 2026-04-24 18:58 | 55.67221 | 15.66138 | 37931 ft | 427 kts | 253° |
| 2026-04-24 18:58 | 55.65025 | 15.56454 | 37932 ft | 422 kts | 253° |
| 2026-04-24 18:59 | 55.62831 | 15.46801 | 37928 ft | 423 kts | 253° |
| 2026-04-24 18:59 | 55.60641 | 15.37216 | 37928 ft | 423 kts | 253° |
| 2026-04-24 19:00 | 55.58430 | 15.27584 | 37933 ft | 423 kts | 253° |
| 2026-04-24 19:00 | 55.56213 | 15.17970 | 37929 ft | 423 kts | 253° |
| 2026-04-24 19:01 | 55.53984 | 15.08348 | 37933 ft | 423 kts | 253° |
| 2026-04-24 19:01 | 55.51748 | 14.98739 | 37944 ft | 423 kts | 253° |
| 2026-04-24 19:02 | 55.49885 | 14.90765 | 37940 ft | 423 kts | 253° |
| 2026-04-24 19:02 | 55.47252 | 14.79542 | 37946 ft | 423 kts | 253° |
| 2026-04-24 19:03 | 55.44991 | 14.69958 | 37946 ft | 424 kts | 253° |
| 2026-04-24 19:03 | 55.42723 | 14.60381 | 37948 ft | 424 kts | 252° |
| 2026-04-24 19:04 | 55.40446 | 14.50812 | 37948 ft | 424 kts | 252° |
| 2026-04-24 19:04 | 55.38160 | 14.41246 | 37958 ft | 424 kts | 252° |
| 2026-04-24 19:05 | 55.35868 | 14.31698 | 37966 ft | 424 kts | 252° |
| 2026-04-24 19:05 | 55.33563 | 14.22138 | 37956 ft | 425 kts | 252° |
| 2026-04-24 19:06 | 55.31250 | 14.12584 | 37962 ft | 425 kts | 252° |
| 2026-04-24 19:06 | 55.28928 | 14.03038 | 37967 ft | 426 kts | 252° |
| 2026-04-24 19:07 | 55.26594 | 13.93484 | 37973 ft | 426 kts | 252° |
| 2026-04-24 19:07 | 55.24646 | 13.85544 | 37972 ft | 427 kts | 251° |
| 2026-04-24 19:08 | 55.21897 | 13.74384 | 37971 ft | 428 kts | 251° |
| 2026-04-24 19:08 | 55.19513 | 13.64744 | 37981 ft | 434 kts | 251° |
| 2026-04-24 19:09 | 55.17119 | 13.55117 | 37980 ft | 434 kts | 251° |
| 2026-04-24 19:09 | 55.14701 | 13.45439 | 37983 ft | 435 kts | 251° |
| 2026-04-24 19:10 | 55.12267 | 13.35735 | 37982 ft | 435 kts | 251° |
| 2026-04-24 19:10 | 55.09829 | 13.26057 | 37987 ft | 435 kts | 250° |
| 2026-04-24 19:11 | 55.07968 | 13.16109 | 37995 ft | 429 kts | 264° |
| 2026-04-24 19:11 | 55.07112 | 13.05819 | 37993 ft | 429 kts | 265° |
| 2026-04-24 19:12 | 55.06282 | 12.95581 | 37990 ft | 429 kts | 265° |
| 2026-04-24 19:12 | 55.05449 | 12.85266 | 37993 ft | 429 kts | 265° |
| 2026-04-24 19:13 | 55.04753 | 12.76627 | 37994 ft | 429 kts | 265° |
| 2026-04-24 19:13 | 55.02768 | 12.65015 | 37993 ft | 440 kts | 243° |
| 2026-04-24 19:14 | 54.98983 | 12.56575 | 37847 ft | 436 kts | 234° |
| 2026-04-24 19:14 | 54.97058 | 12.52588 | 37665 ft | 426 kts | 235° |
| 2026-04-24 19:14 | 54.95222 | 12.48590 | 37121 ft | 421 kts | 237° |
| 2026-04-24 19:14 | 54.93445 | 12.44548 | 36451 ft | 420 kts | 238° |
| 2026-04-24 19:15 | 54.91697 | 12.40475 | 35764 ft | 420 kts | 238° |
| 2026-04-24 19:15 | 54.89958 | 12.36385 | 35099 ft | 420 kts | 238° |
| 2026-04-24 19:15 | 54.88224 | 12.32305 | 34426 ft | 420 kts | 238° |
| 2026-04-24 19:15 | 54.86488 | 12.28226 | 33728 ft | 420 kts | 238° |
| 2026-04-24 19:16 | 54.83588 | 12.21432 | 32341 ft | 423 kts | 238° |
| 2026-04-24 19:16 | 54.81828 | 12.17321 | 31493 ft | 426 kts | 238° |
| 2026-04-24 19:16 | 54.80054 | 12.13184 | 30632 ft | 428 kts | 238° |
| 2026-04-24 19:17 | 54.77695 | 12.07698 | 29642 ft | 427 kts | 238° |
| 2026-04-24 19:17 | 54.76497 | 12.04921 | 29180 ft | 425 kts | 238° |
| 2026-04-24 19:17 | 54.74737 | 12.00846 | 28517 ft | 421 kts | 238° |
| 2026-04-24 19:17 | 54.72990 | 11.96804 | 27844 ft | 418 kts | 238° |
| 2026-04-24 19:18 | 54.71252 | 11.92788 | 27180 ft | 415 kts | 238° |
| 2026-04-24 19:18 | 54.69524 | 11.88802 | 26548 ft | 413 kts | 238° |
| 2026-04-24 19:18 | 54.67809 | 11.84851 | 25954 ft | 410 kts | 238° |
| 2026-04-24 19:18 | 54.66109 | 11.80940 | 25599 ft | 405 kts | 238° |
| 2026-04-24 19:19 | 54.64410 | 11.77034 | 25355 ft | 409 kts | 238° |
| 2026-04-24 19:19 | 54.62698 | 11.73101 | 25115 ft | 409 kts | 238° |
| 2026-04-24 19:19 | 54.60987 | 11.69184 | 24873 ft | 408 kts | 237° |
| 2026-04-24 19:19 | 54.59281 | 11.65287 | 24635 ft | 407 kts | 237° |
| 2026-04-24 19:20 | 54.57576 | 11.61395 | 24400 ft | 406 kts | 237° |
| 2026-04-24 19:20 | 54.55875 | 11.57519 | 24157 ft | 405 kts | 237° |
| 2026-04-24 19:20 | 54.54180 | 11.53662 | 23934 ft | 404 kts | 237° |
| 2026-04-24 19:20 | 54.52482 | 11.49808 | 23708 ft | 403 kts | 237° |
| 2026-04-24 19:21 | 54.50814 | 11.46024 | 23446 ft | 402 kts | 237° |
| 2026-04-24 19:21 | 54.49107 | 11.42160 | 23174 ft | 399 kts | 237° |
| 2026-04-24 19:21 | 54.47430 | 11.38371 | 22901 ft | 397 kts | 237° |
| 2026-04-24 19:21 | 54.45766 | 11.34614 | 22630 ft | 394 kts | 237° |
| 2026-04-24 19:22 | 54.44665 | 11.32131 | 22451 ft | 393 kts | 237° |
| 2026-04-24 19:22 | 54.42456 | 11.27157 | 22098 ft | 391 kts | 237° |
| 2026-04-24 19:22 | 54.40808 | 11.23455 | 21834 ft | 389 kts | 237° |
| 2026-04-24 19:22 | 54.39193 | 11.19830 | 21582 ft | 387 kts | 237° |
| 2026-04-24 19:23 | 54.37562 | 11.16176 | 21327 ft | 385 kts | 237° |
| 2026-04-24 19:23 | 54.35937 | 11.12539 | 21072 ft | 383 kts | 237° |
| 2026-04-24 19:23 | 54.34318 | 11.08921 | 20815 ft | 382 kts | 237° |
| 2026-04-24 19:23 | 54.32705 | 11.05323 | 20570 ft | 380 kts | 237° |
| 2026-04-24 19:24 | 54.31101 | 11.01745 | 20321 ft | 378 kts | 237° |
| 2026-04-24 19:24 | 54.29499 | 10.98176 | 19979 ft | 378 kts | 237° |
| 2026-04-24 19:24 | 54.27892 | 10.94604 | 19454 ft | 378 kts | 237° |
| 2026-04-24 19:24 | 54.26294 | 10.91057 | 18934 ft | 375 kts | 237° |
| 2026-04-24 19:25 | 54.24551 | 10.87737 | 18313 ft | 380 kts | 225° |
| 2026-04-24 19:25 | 54.22368 | 10.85047 | 17220 ft | 394 kts | 217° |
| 2026-04-24 19:25 | 54.20013 | 10.82606 | 16412 ft | 396 kts | 215° |
| 2026-04-24 19:25 | 54.17656 | 10.80203 | 15766 ft | 393 kts | 216° |
| 2026-04-24 19:26 | 54.15341 | 10.77775 | 15135 ft | 389 kts | 217° |
| 2026-04-24 19:26 | 54.13059 | 10.75312 | 14517 ft | 386 kts | 217° |
| 2026-04-24 19:26 | 54.10811 | 10.72844 | 13918 ft | 383 kts | 218° |
| 2026-04-24 19:26 | 54.08580 | 10.70376 | 13255 ft | 381 kts | 218° |
| 2026-04-24 19:27 | 54.06363 | 10.67919 | 12615 ft | 378 kts | 218° |
| 2026-04-24 19:27 | 54.04196 | 10.65427 | 11981 ft | 372 kts | 224° |
| 2026-04-24 19:27 | 54.02536 | 10.62188 | 11360 ft | 358 kts | 245° |
| 2026-04-24 19:27 | 54.01557 | 10.58383 | 10743 ft | 345 kts | 254° |
| 2026-04-24 19:28 | 54.00718 | 10.54637 | 10232 ft | 333 kts | 254° |
| 2026-04-24 19:28 | 53.99905 | 10.51062 | 10011 ft | 313 kts | 254° |
| 2026-04-24 19:28 | 53.99136 | 10.47757 | 9944 ft | 289 kts | 254° |
| 2026-04-24 19:28 | 53.98401 | 10.44664 | 9958 ft | 282 kts | 254° |
| 2026-04-24 19:29 | 53.96939 | 10.38478 | 9867 ft | 280 kts | 254° |
| 2026-04-24 19:29 | 53.96216 | 10.35421 | 9537 ft | 279 kts | 254° |
| 2026-04-24 19:29 | 53.95496 | 10.32373 | 9157 ft | 277 kts | 254° |
| 2026-04-24 19:30 | 53.94782 | 10.29330 | 8750 ft | 277 kts | 254° |
| 2026-04-24 19:30 | 53.94078 | 10.26303 | 8359 ft | 275 kts | 254° |
| 2026-04-24 19:30 | 53.93381 | 10.23286 | 7959 ft | 274 kts | 254° |
| 2026-04-24 19:30 | 53.92689 | 10.20282 | 7593 ft | 273 kts | 254° |
| 2026-04-24 19:31 | 53.92003 | 10.17287 | 7222 ft | 271 kts | 254° |
| 2026-04-24 19:31 | 53.91329 | 10.14329 | 7025 ft | 268 kts | 254° |
| 2026-04-24 19:31 | 53.90656 | 10.11347 | 6975 ft | 272 kts | 254° |
| 2026-04-24 19:31 | 53.89980 | 10.08355 | 6973 ft | 272 kts | 254° |
| 2026-04-24 19:32 | 53.89302 | 10.05369 | 6976 ft | 271 kts | 254° |
| 2026-04-24 19:32 | 53.88629 | 10.02397 | 6974 ft | 270 kts | 254° |
| 2026-04-24 19:32 | 53.87938 | 9.99431 | 6971 ft | 273 kts | 249° |
| 2026-04-24 19:32 | 53.86739 | 9.96900 | 6929 ft | 282 kts | 222° |
| 2026-04-24 19:33 | 53.84957 | 9.95434 | 6661 ft | 291 kts | 196° |
| 2026-04-24 19:33 | 53.82928 | 9.95391 | 6287 ft | 296 kts | 169° |
| 2026-04-24 19:33 | 53.81066 | 9.96813 | 5883 ft | 296 kts | 141° |
| 2026-04-24 19:33 | 53.79741 | 9.99432 | 5479 ft | 292 kts | 114° |
| 2026-04-24 19:34 | 53.79231 | 10.02630 | 5082 ft | 283 kts | 86° |
| 2026-04-24 19:34 | 53.79579 | 10.05816 | 4703 ft | 272 kts | 65° |
| 2026-04-24 19:34 | 53.80231 | 10.08794 | 4350 ft | 269 kts | 64° |
| 2026-04-24 19:34 | 53.80880 | 10.11748 | 4061 ft | 265 kts | 64° |
| 2026-04-24 19:35 | 53.81511 | 10.14655 | 3971 ft | 258 kts | 64° |
| 2026-04-24 19:35 | 53.82099 | 10.17433 | 3978 ft | 243 kts | 64° |
| 2026-04-24 19:35 | 53.82647 | 10.20053 | 3972 ft | 233 kts | 64° |
| 2026-04-24 19:35 | 53.83210 | 10.22691 | 3972 ft | 240 kts | 64° |
| 2026-04-24 19:36 | 53.83762 | 10.25326 | 3973 ft | 236 kts | 64° |
| 2026-04-24 19:36 | 53.84315 | 10.27944 | 3958 ft | 237 kts | 60° |
| 2026-04-24 19:36 | 53.85272 | 10.30061 | 3953 ft | 222 kts | 28° |
| 2026-04-24 19:36 | 53.86673 | 10.30895 | 3960 ft | 211 kts | 356° |
| 2026-04-24 19:37 | 53.88043 | 10.30234 | 3961 ft | 207 kts | 324° |
| 2026-04-24 19:37 | 53.88929 | 10.28306 | 3960 ft | 219 kts | 293° |
| 2026-04-24 19:37 | 53.89086 | 10.25660 | 3968 ft | 231 kts | 274° |
| 2026-04-24 19:37 | 53.89428 | 10.23085 | 3964 ft | 222 kts | 303° |
| 2026-04-24 19:38 | 53.90497 | 10.21291 | 3965 ft | 218 kts | 333° |
| 2026-04-24 19:38 | 53.91978 | 10.20795 | 3970 ft | 224 kts | 3° |
| 2026-04-24 19:38 | 53.93420 | 10.21771 | 3961 ft | 226 kts | 33° |
| 2026-04-24 19:38 | 53.94323 | 10.23940 | 3964 ft | 237 kts | 66° |
| 2026-04-24 19:39 | 53.94444 | 10.26812 | 3965 ft | 252 kts | 98° |
| 2026-04-24 19:39 | 53.93693 | 10.29499 | 3962 ft | 258 kts | 130° |
| 2026-04-24 19:39 | 53.92255 | 10.31312 | 3964 ft | 260 kts | 153° |
| 2026-04-24 19:39 | 53.90645 | 10.32696 | 3958 ft | 259 kts | 154° |
| 2026-04-24 19:40 | 53.89032 | 10.34063 | 3950 ft | 259 kts | 154° |
| 2026-04-24 19:40 | 53.87460 | 10.35394 | 3950 ft | 245 kts | 154° |
| 2026-04-24 19:40 | 53.85972 | 10.36653 | 3950 ft | 240 kts | 154° |
| 2026-04-24 19:40 | 53.84417 | 10.37646 | 3951 ft | 236 kts | 178° |
| 2026-04-24 19:41 | 53.82834 | 10.37282 | 3952 ft | 229 kts | 209° |
| 2026-04-24 19:41 | 53.81499 | 10.35911 | 3954 ft | 221 kts | 226° |
| 2026-04-24 19:41 | 53.80408 | 10.34122 | 3959 ft | 217 kts | 235° |
| 2026-04-24 19:41 | 53.79432 | 10.32186 | 3953 ft | 215 kts | 238° |
| 2026-04-24 19:42 | 53.78476 | 10.30222 | 3959 ft | 217 kts | 237° |
| 2026-04-24 19:42 | 53.77514 | 10.28261 | 3972 ft | 216 kts | 237° |
| 2026-04-24 19:42 | 53.76557 | 10.26309 | 3972 ft | 215 kts | 237° |
| 2026-04-24 19:42 | 53.75619 | 10.24403 | 3818 ft | 205 kts | 238° |
| 2026-04-24 19:43 | 53.74736 | 10.22606 | 3589 ft | 195 kts | 238° |
| 2026-04-24 19:43 | 53.73883 | 10.20862 | 3320 ft | 190 kts | 238° |
| 2026-04-24 19:43 | 53.73048 | 10.19162 | 3049 ft | 186 kts | 238° |
| 2026-04-24 19:43 | 53.72234 | 10.17503 | 2799 ft | 181 kts | 238° |
| 2026-04-24 19:44 | 53.71442 | 10.15893 | 2569 ft | 174 kts | 238° |
| 2026-04-24 19:44 | 53.70685 | 10.14352 | 2327 ft | 168 kts | 238° |
| 2026-04-24 19:44 | 53.69948 | 10.12850 | 2097 ft | 164 kts | 238° |
| 2026-04-24 19:44 | 53.69237 | 10.11407 | 1870 ft | 155 kts | 238° |
| 2026-04-24 19:45 | 53.68575 | 10.10066 | 1658 ft | 142 kts | 238° |
| 2026-04-24 19:45 | 53.67972 | 10.08843 | 1471 ft | 129 kts | 239° |
| 2026-04-24 19:45 | 53.67404 | 10.07678 | 1306 ft | 129 kts | 238° |
| 2026-04-24 19:45 | 53.66840 | 10.06536 | 1110 ft | 125 kts | 238° |
| 2026-04-24 19:46 | 53.66279 | 10.05391 | 922 ft | 126 kts | 237° |
| 2026-04-24 19:46 | 53.65728 | 10.04278 | 743 ft | 122 kts | 237° |
| 2026-04-24 19:46 | 53.65205 | 10.03217 | 573 ft | 112 kts | 237° |
| 2026-04-24 19:46 | 53.64702 | 10.02190 | 414 ft | 115 kts | 238° |
| 2026-04-24 19:47 | 53.64187 | 10.01146 | 282 ft | 121 kts | 237° |
| 2026-04-24 19:47 | 53.63647 | 10.00057 | 112 ft | 119 kts | 235° |
| 2026-04-24 19:47 | 53.63151 | 9.99043 | 49 ft | 98 kts | 229° |
| 2026-04-24 19:47 | 53.62834 | 9.98506 | 48 ft | 28 kts | 193° |
| 2026-04-24 19:48 | 53.62747 | 9.98475 | 46 ft | 0 kts | 177° |
| 2026-04-24 19:48 | 53.62704 | 9.98495 | 45 ft | 4 kts | 111° |
| 2026-04-24 19:49 | 53.62713 | 9.98598 | 43 ft | 6 kts | 56° |
| 2026-04-24 19:49 | 53.62801 | 9.98780 | 46 ft | 14 kts | 51° |
| 2026-04-24 19:50 | 53.63020 | 9.99240 | 47 ft | 15 kts | 51° |
| 2026-04-24 19:50 | 53.63066 | 9.99327 | 47 ft | 10 kts | 48° |
| 2026-04-24 19:51 | 53.63161 | 9.99545 | 47 ft | 11 kts | 51° |
| 2026-04-24 19:51 | 53.63206 | 9.99638 | 48 ft | 5 kts | 49° |
| 2026-04-24 19:52 | 53.63226 | 9.99678 | 48 ft | 4 kts | 49° |
| 2026-04-24 19:52 | 53.63253 | 9.99731 | 48 ft | 9 kts | 49° |
| 2026-04-24 19:52 | 53.63306 | 9.99833 | 49 ft | 14 kts | 49° |
| 2026-04-24 19:52 | 53.63373 | 9.99961 | 50 ft | 14 kts | 49° |
| 2026-04-24 19:53 | 53.63404 | 10.00019 | 50 ft | 3 kts | 49° |
| 2026-04-24 19:53 | 53.63428 | 10.00064 | 51 ft | 7 kts | 49° |
| 2026-04-24 19:53 | 53.63439 | 10.00153 | 51 ft | 4 kts | 104° |
| 2026-04-24 19:54 | 53.63424 | 10.00197 | 48 ft | 5 kts | 126° |
| 2026-04-24 19:54 | 53.63411 | 10.00252 | 48 ft | 6 kts | 88° |
| 2026-04-24 19:54 | 53.63414 | 10.00324 | 51 ft | 5 kts | 87° |
| 2026-04-24 19:54 | 53.63415 | 10.00352 | 51 ft | 2 kts | 86° |
| 2026-04-24 19:55 | 53.63415 | 10.00362 | 51 ft | 0 kts | 86° |
| 2026-04-24 19:55 | 53.63415 | 10.00363 | 51 ft | 0 kts | 86° |